LKTRUT weather

Public forecast

Using degrees Celsius for public forecast. Weather courtesy of forecast.io.

Closest aviation weather report (METAR) to Trutnov

Closest report is Pardubice Airport, 33.6 nm (62.3 km) S. Retrieved 2020/08/09 02:30 UTC (0 seconds ago):

LKPD 090230Z VRB01KT CAVOK 17/16 Q1019

Closest aviation forecast (TAF) to Trutnov

Closest forecast is Pardubice Airport, 33.6 nm (62.3 km) S. Retrieved 2020-08-09 00:06 UTC (2 hours ago):

TAF LKPD 082300Z 0900/1000 VRB02KT CAVOK TEMPO 0912/0917 08008KT SCT040TCU PROB30 TEMPO 0913/0916 06012KT SHRA SCT040CB